Auxvasse, Missouri
Current Conditions -  °F | °C
As of 8:54 AM on Thursday 30 Oct 2014 (Local Time) from KCOU Reporting Station
Overcast Overcast  
Wind Chill: 40°   Ceiling: 9500
Heat Index: 44°   Visibility: 10mi
Dew Point: 36°   Wind: 8mph
Humidity: 73%   Direction: 150°SSE
Pressure: 30.11"   Gusts: NA
Location:  39.02°N, 91.9°W
Report Text: KCOU 301354Z 15007KT 10SM FEW060 SCT075 OVC095 07/02 A3011 RMK AO2 SLP199 T00670022
Loading
Personal Weather Stations






























Interactive Weather Map
Tropical Storm Tracking
New forecast layout! Learn more

10-Day Weather Forecast

Advertisements
Track Severe Weather on mobile